Time;durP1;ratioP1;P1;durP2;ratioP2;P2;SDS_P1;SDS_P2;PMS_P1;PMS_P2;Temp;Humidity;BMP_temperature;BMP_pressure;BME280_temperature;BME280_humidity;BME280_pressure;Samples;Min_cycle;Max_cycle;Signal;HPM_P1;HPM_P2
2022/03/02 00:01:15;;;;;;;6.23;5.57;;;;;;;2.09;68.41;101360.94;5054783;28;20167;-71
2022/03/02 00:03:41;;;;;;;6.23;5.63;;;;;;;2.13;68.14;101353.19;5054254;28;20526;-72
2022/03/02 00:06:08;;;;;;;9.80;6.50;;;;;;;2.21;68.60;101358.25;5054617;28;20183;-72
2022/03/02 00:08:33;;;;;;;5.93;5.43;;;;;;;2.30;68.24;101356.84;5053986;28;20172;-72
2022/03/02 00:10:58;;;;;;;5.40;4.90;;;;;;;2.26;68.00;101344.06;5054053;28;20311;-71
2022/03/02 00:13:23;;;;;;;5.23;4.73;;;;;;;2.01;67.73;101341.56;5054111;28;20591;-71
2022/03/02 00:15:49;;;;;;;6.30;5.70;;;;;;;1.98;67.61;101342.03;5054516;28;20221;-72
2022/03/02 00:18:14;;;;;;;6.10;5.50;;;;;;;2.16;67.87;101333.84;5053712;28;20183;-73
2022/03/02 00:20:40;;;;;;;6.97;5.83;;;;;;;2.20;68.04;101335.06;5053490;28;20182;-72
2022/03/02 00:23:05;;;;;;;5.70;5.10;;;;;;;2.28;67.93;101329.28;5054121;28;20185;-72
2022/03/02 00:25:31;;;;;;;5.63;5.13;;;;;;;2.18;67.63;101334.47;5053910;28;20210;-72
2022/03/02 00:27:57;;;;;;;6.10;5.50;;;;;;;1.79;68.39;101330.53;5053429;28;20796;-72
2022/03/02 00:30:23;;;;;;;6.40;4.53;;;;;;;2.07;68.45;101341.47;5054040;28;20630;-72
2022/03/02 00:32:48;;;;;;;5.23;4.73;;;;;;;2.29;68.23;101341.72;5053621;28;20179;-72
2022/03/02 00:35:13;;;;;;;6.40;5.10;;;;;;;2.28;67.50;101344.66;5053571;28;20210;-71
2022/03/02 00:37:39;;;;;;;5.67;4.57;;;;;;;2.05;67.74;101332.81;5052471;28;20186;-72
2022/03/02 00:40:05;;;;;;;5.83;4.50;;;;;;;1.92;68.55;101333.03;5053487;28;20180;-72
2022/03/02 00:42:31;;;;;;;5.80;4.47;;;;;;;1.69;69.38;101335.66;5053391;28;20172;-71
2022/03/02 00:44:56;;;;;;;6.73;4.47;;;;;;;1.45;70.54;101326.72;5052914;28;20186;-72
2022/03/02 00:47:22;;;;;;;5.97;4.67;;;;;;;1.26;71.39;101322.41;5053196;28;20172;-71
2022/03/02 00:49:48;;;;;;;4.83;3.83;;;;;;;1.01;72.30;101315.28;5053264;28;20190;-72
2022/03/02 00:52:14;;;;;;;5.27;4.77;;;;;;;0.96;72.81;101317.00;5053674;28;20207;-72
2022/03/02 00:54:40;;;;;;;6.40;4.93;;;;;;;0.93;73.85;101320.16;5035287;28;20206;-71
2022/03/02 00:57:05;;;;;;;5.67;4.70;;;;;;;0.89;74.15;101303.66;5052980;28;20179;-72
2022/03/02 00:59:31;;;;;;;6.03;4.53;;;;;;;0.94;74.13;101314.56;5053263;28;20177;-71
2022/03/02 01:01:56;;;;;;;5.10;4.30;;;;;;;0.83;74.27;101318.00;5053114;28;20175;-71
2022/03/02 01:04:22;;;;;;;4.37;3.97;;;;;;;0.69;74.07;101311.13;5052448;28;20594;-72
2022/03/02 01:06:47;;;;;;;5.83;4.50;;;;;;;0.58;74.29;101304.66;5052602;28;20510;-71
2022/03/02 01:09:13;;;;;;;4.97;3.80;;;;;;;0.53;74.55;101305.31;5052846;28;20267;-71
2022/03/02 01:11:38;;;;;;;6.23;4.17;;;;;;;0.50;74.58;101304.94;5053029;28;20582;-71
2022/03/02 01:14:04;;;;;;;4.20;3.80;;;;;;;0.46;75.49;101309.94;5052721;28;20179;-71
2022/03/02 01:16:29;;;;;;;5.67;4.77;;;;;;;0.45;76.27;101302.91;5052848;28;20179;-72
2022/03/02 01:18:54;;;;;;;5.47;4.37;;;;;;;0.48;75.69;101299.78;5052709;28;20581;-72
2022/03/02 01:21:20;;;;;;;4.60;3.60;;;;;;;0.47;73.89;101306.22;5052845;28;20185;-71
2022/03/02 01:23:46;;;;;;;5.73;4.13;;;;;;;0.50;73.35;101305.75;5052776;28;20254;-72
2022/03/02 01:26:11;;;;;;;5.90;4.33;;;;;;;0.47;73.24;101295.44;5052969;28;20232;-71
2022/03/02 01:28:37;;;;;;;4.90;3.97;;;;;;;0.55;73.79;101289.75;5052376;28;20195;-72
2022/03/02 01:31:03;;;;;;;4.63;4.20;;;;;;;0.66;73.49;101287.38;5052636;28;20206;-71
2022/03/02 01:33:28;;;;;;;4.40;3.33;;;;;;;0.70;72.60;101293.94;5052476;28;20622;-71
2022/03/02 01:35:54;;;;;;;4.60;4.20;;;;;;;0.74;71.83;101284.41;5052383;28;20222;-72
2022/03/02 01:38:19;;;;;;;6.70;4.57;;;;;;;0.77;71.73;101284.75;5052178;28;20264;-72
2022/03/02 01:40:44;;;;;;;3.60;3.30;;;;;;;0.85;71.04;101283.63;5052375;28;20274;-71
2022/03/02 01:43:12;;;;;;;7.60;4.13;;;;;;;0.88;71.59;101285.88;5052118;28;20179;-71
2022/03/02 01:45:37;;;;;;;5.20;4.63;;;;;;;0.91;72.17;101284.59;5052039;28;20217;-72
2022/03/02 01:48:04;;;;;;;5.83;4.60;;;;;;;0.92;72.55;101287.06;5051687;28;20211;-72
2022/03/02 01:50:30;;;;;;;4.70;4.03;;;;;;;0.91;72.18;101284.59;5052155;28;20194;-72
2022/03/02 01:52:56;;;;;;;6.23;3.83;;;;;;;0.87;72.60;101286.94;5052118;28;20233;-72
2022/03/02 01:55:21;;;;;;;4.77;4.20;;;;;;;0.92;72.38;101279.00;5051954;28;20457;-72
2022/03/02 01:57:47;;;;;;;4.50;4.07;;;;;;;1.00;73.22;101275.16;5051940;28;20250;-73
2022/03/02 02:00:18;;;;;;;5.60;4.67;;;;;;;1.16;73.21;101272.66;5051714;28;20689;-71
2022/03/02 02:02:43;;;;;;;5.40;4.43;;;;;;;1.09;72.90;101254.97;5051957;28;20164;-72
2022/03/02 02:05:08;;;;;;;5.33;3.47;;;;;;;1.00;72.35;101259.81;5051916;28;20176;-72
2022/03/02 02:07:34;;;;;;;5.47;4.47;;;;;;;1.09;71.74;101254.97;5051814;28;20222;-72
2022/03/02 02:09:59;;;;;;;5.23;3.73;;;;;;;1.23;72.20;101261.78;5052030;28;20179;-71
2022/03/02 02:12:25;;;;;;;5.23;3.97;;;;;;;1.33;72.25;101258.56;5051751;28;20246;-72
2022/03/02 02:14:50;;;;;;;4.77;4.27;;;;;;;1.41;71.69;101263.59;5051950;28;20209;-72
2022/03/02 02:17:16;;;;;;;4.60;3.60;;;;;;;1.11;70.77;101252.84;5051508;28;20250;-72
2022/03/02 02:19:41;;;;;;;7.13;3.83;;;;;;;1.08;70.51;101253.31;5051560;28;20688;-72
2022/03/02 02:22:07;;;;;;;4.70;4.20;;;;;;;1.20;71.06;101251.50;5051434;28;20213;-72
2022/03/02 02:24:34;;;;;;;5.50;5.00;;;;;;;1.30;71.05;101259.00;5051336;28;20179;-72
2022/03/02 02:27:01;;;;;;;4.63;4.00;;;;;;;1.51;71.32;101257.66;5051201;28;20226;-71
2022/03/02 02:29:29;;;;;;;4.17;3.77;;;;;;;1.72;71.15;101260.59;5051406;28;20628;-72
2022/03/02 02:31:55;;;;;;;5.53;4.97;;;;;;;1.87;70.54;101262.84;5051455;28;20175;-72
2022/03/02 02:34:21;;;;;;;6.10;5.07;;;;;;;1.89;70.25;101262.63;5033379;28;20666;-72
2022/03/02 02:36:46;;;;;;;5.87;4.80;;;;;;;1.91;70.57;101247.03;5051309;28;20171;-72
2022/03/02 02:39:12;;;;;;;5.13;4.63;;;;;;;1.91;70.72;101247.88;5051241;28;20308;-72
2022/03/02 02:41:37;;;;;;;4.63;3.90;;;;;;;2.02;70.72;101238.94;5051320;28;20167;-72
2022/03/02 02:44:03;;;;;;;4.37;3.90;;;;;;;1.98;69.93;101237.78;5050877;28;20437;-72
2022/03/02 02:46:28;;;;;;;5.50;4.80;;;;;;;1.65;68.60;101219.50;5050670;28;20266;-72
2022/03/02 02:48:54;;;;;;;4.23;3.83;;;;;;;1.56;68.97;101220.06;5050762;28;20181;-72
2022/03/02 02:51:19;;;;;;;4.90;4.40;;;;;;;1.52;68.34;101208.94;5050684;28;20213;-71
2022/03/02 02:53:44;;;;;;;5.00;4.50;;;;;;;1.72;68.12;101222.88;5050823;28;20176;-72
2022/03/02 02:56:10;;;;;;;4.57;4.03;;;;;;;1.62;67.35;101211.91;5050642;28;20666;-73
2022/03/02 02:58:35;;;;;;;5.67;4.90;;;;;;;1.36;68.44;101209.63;5032625;28;20202;-72
2022/03/02 03:01:02;;;;;;;6.47;5.20;;;;;;;1.26;68.43;101195.91;5050114;28;20262;-73
2022/03/02 03:03:27;;;;;;;5.17;4.63;;;;;;;1.40;68.63;101191.94;5050616;28;20634;-72
2022/03/02 03:05:52;;;;;;;5.40;4.80;;;;;;;1.44;68.55;101203.88;5050638;28;20186;-72
2022/03/02 03:08:18;;;;;;;6.10;5.07;;;;;;;1.63;68.86;101199.25;5050458;28;20658;-72
2022/03/02 03:10:45;;;;;;;6.43;5.20;;;;;;;1.81;68.79;101206.38;5050690;28;20188;-73
2022/03/02 03:13:11;;;;;;;5.50;5.00;;;;;;;1.99;68.76;101204.38;5050660;28;20175;-72
2022/03/02 03:15:38;;;;;;;6.53;4.83;;;;;;;2.15;68.85;101207.41;5050806;28;20202;-72
2022/03/02 03:18:05;;;;;;;6.70;4.83;;;;;;;2.25;68.93;101207.63;5050746;28;20524;-73
2022/03/02 03:20:33;;;;;;;5.97;5.30;;;;;;;2.21;68.79;101212.69;5050525;28;20171;-73
2022/03/02 03:22:59;;;;;;;5.90;5.17;;;;;;;2.21;68.58;101201.91;5050487;28;20757;-72
2022/03/02 03:25:26;;;;;;;5.83;5.13;;;;;;;2.20;69.06;101213.75;5050537;28;20186;-72
2022/03/02 03:27:52;;;;;;;6.10;5.23;;;;;;;2.11;68.22;101207.06;5050089;28;20215;-71
2022/03/02 03:30:19;;;;;;;6.47;5.23;;;;;;;1.98;68.56;101210.00;5050707;28;20207;-72
2022/03/02 03:32:46;;;;;;;7.03;4.97;;;;;;;1.94;69.57;101203.47;5050346;28;20197;-72
2022/03/02 03:35:14;;;;;;;5.60;5.00;;;;;;;1.97;70.34;101200.28;5050260;28;20207;-72
2022/03/02 03:37:40;;;;;;;7.97;5.80;;;;;;;2.02;70.87;101197.69;5050148;28;20187;-72
2022/03/02 03:40:08;;;;;;;6.47;4.97;;;;;;;2.03;71.41;101202.06;5050340;28;20544;-71
2022/03/02 03:42:33;;;;;;;8.33;5.60;;;;;;;1.95;72.18;101195.13;5050565;28;20195;-72
2022/03/02 03:44:59;;;;;;;6.97;6.27;;;;;;;1.68;72.61;101194.78;5052286;28;20176;-72
2022/03/02 03:47:24;;;;;;;5.77;5.17;;;;;;;1.55;73.18;101196.88;5051442;28;20183;-72
2022/03/02 03:49:50;;;;;;;7.07;5.77;;;;;;;1.63;73.74;101192.00;5050321;28;20171;-72
2022/03/02 03:52:15;;;;;;;6.57;5.30;;;;;;;1.87;74.02;101206.25;5032284;28;20183;-71
2022/03/02 03:54:40;;;;;;;7.20;5.70;;;;;;;1.93;73.88;101199.94;5050141;28;20206;-72
2022/03/02 03:57:06;;;;;;;6.90;5.70;;;;;;;1.89;73.99;101195.28;5050108;28;20176;-72
2022/03/02 03:59:32;;;;;;;6.67;5.90;;;;;;;1.58;74.07;101180.25;5050162;28;20171;-72
2022/03/02 04:01:57;;;;;;;7.20;6.50;;;;;;;1.48;74.21;101178.16;5050174;28;20590;-72
2022/03/02 04:04:23;;;;;;;6.87;6.17;;;;;;;1.62;74.64;101179.56;5050113;28;20632;-72
2022/03/02 04:06:48;;;;;;;8.63;6.23;;;;;;;1.55;74.78;101184.25;5050285;28;20175;-71
2022/03/02 04:09:13;;;;;;;7.63;5.93;;;;;;;1.59;74.82;101179.19;5050013;28;20182;-72
2022/03/02 04:11:39;;;;;;;9.83;7.03;;;;;;;1.84;74.63;101197.81;5052100;28;20627;-72
2022/03/02 04:14:05;;;;;;;8.43;6.27;;;;;;;1.65;74.64;101186.38;5053576;28;20210;-72
2022/03/02 04:16:30;;;;;;;7.30;5.60;;;;;;;1.84;74.85;101192.44;5053614;28;20638;-72
2022/03/02 04:18:56;;;;;;;5.60;4.97;;;;;;;1.91;74.73;101198.53;5053307;28;20183;-71
2022/03/02 04:21:21;;;;;;;6.20;5.57;;;;;;;1.69;74.53;101192.91;5053502;28;20180;-71
2022/03/02 04:23:47;;;;;;;7.63;5.47;;;;;;;1.41;75.06;101183.63;5053417;28;20177;-71
2022/03/02 04:26:12;;;;;;;7.00;6.20;;;;;;;1.21;75.51;101179.66;5053394;28;20186;-72
2022/03/02 04:28:38;;;;;;;6.73;5.20;;;;;;;1.17;76.00;101180.13;5053076;28;20199;-71
2022/03/02 04:31:03;;;;;;;9.10;6.00;;;;;;;1.16;75.42;101180.34;5053242;28;20229;-72
2022/03/02 04:33:29;;;;;;;6.47;5.27;;;;;;;1.02;74.92;101173.53;5053170;28;20273;-71
2022/03/02 04:35:54;;;;;;;4.67;4.27;;;;;;;0.95;74.82;101156.66;5053015;28;20207;-71
2022/03/02 04:38:20;;;;;;;7.63;5.17;;;;;;;0.89;75.52;101155.72;5053036;28;20171;-72
2022/03/02 04:40:45;;;;;;;6.67;4.90;;;;;;;0.88;76.29;101167.53;5053042;28;20175;-71
2022/03/02 04:43:10;;;;;;;4.70;3.97;;;;;;;0.87;77.27;101165.88;5053092;28;20179;-73
2022/03/02 04:45:36;;;;;;;5.77;4.80;;;;;;;0.94;78.12;101171.97;5050441;28;20276;-71
2022/03/02 04:48:01;;;;;;;9.60;5.07;;;;;;;1.02;78.43;101177.03;5052637;28;20653;-71
2022/03/02 04:50:27;;;;;;;6.60;5.60;;;;;;;0.97;78.63;101162.63;5035047;28;20202;-71
2022/03/02 04:52:55;;;;;;;5.27;4.60;;;;;;;0.91;78.18;101167.06;5052965;28;20214;-71
2022/03/02 04:55:21;;;;;;;5.37;4.70;;;;;;;0.85;77.97;101174.16;5052737;28;20549;-72
2022/03/02 04:57:54;;;;;;;5.27;4.87;;;;;;;0.84;78.37;101156.38;5052903;28;20171;-71
2022/03/02 05:00:31;;;;;;;9.53;5.43;;;;;;;0.83;78.76;101156.63;5052816;28;20263;-71
2022/03/02 05:02:59;;;;;;;6.77;5.77;;;;;;;0.95;80.00;101151.28;5052726;28;20167;-72
2022/03/02 05:05:26;;;;;;;7.60;6.30;;;;;;;0.54;79.08;101145.63;5052662;28;20182;-71
2022/03/02 05:07:51;;;;;;;6.63;5.93;;;;;;;0.20;79.29;101154.38;5052534;28;20182;-72
2022/03/02 05:10:19;;;;;;;6.83;5.73;;;;;;;0.17;79.61;101152.94;5052547;28;20175;-72
2022/03/02 05:12:45;;;;;;;8.87;6.37;;;;;;;0.06;80.90;101144.81;5052487;28;20179;-72
2022/03/02 05:15:12;;;;;;;7.83;5.97;;;;;;;0.05;81.57;101146.69;5052341;28;20290;-72
2022/03/02 05:17:39;;;;;;;15.67;6.93;;;;;;;0.23;82.02;101148.53;5052216;28;20274;-72
2022/03/02 05:20:06;;;;;;;8.53;7.10;;;;;;;0.56;81.72;101150.78;5052339;28;20171;-72
2022/03/02 05:22:32;;;;;;;6.90;6.20;;;;;;;0.75;80.96;101157.78;5051644;28;20175;-72
2022/03/02 05:24:57;;;;;;;8.27;6.93;;;;;;;0.91;81.06;101164.38;5052203;28;20182;-72
2022/03/02 05:27:23;;;;;;;7.30;5.53;;;;;;;1.04;80.81;101169.56;5034014;28;20176;-72
2022/03/02 05:29:48;;;;;;;6.30;5.67;;;;;;;1.11;80.12;101167.56;5052084;28;20203;-72
2022/03/02 05:32:13;;;;;;;6.77;5.60;;;;;;;1.19;80.02;101177.19;5052072;28;20176;-72
2022/03/02 05:34:39;;;;;;;5.77;4.90;;;;;;;1.25;79.38;101165.47;5052043;28;20198;-71
2022/03/02 05:37:04;;;;;;;5.97;5.37;;;;;;;1.30;78.88;101178.22;5052064;28;20236;-72
2022/03/02 05:39:30;;;;;;;5.97;4.83;;;;;;;1.30;77.89;101171.00;5052292;28;20532;-72
2022/03/02 05:41:56;;;;;;;6.23;5.63;;;;;;;1.25;77.55;101165.47;5052008;28;20551;-72
2022/03/02 05:44:21;;;;;;;11.33;6.40;;;;;;;1.20;77.37;101160.00;5051831;28;20183;-72
2022/03/02 05:46:47;;;;;;;6.20;5.60;;;;;;;1.14;77.28;101161.72;5051745;28;20187;-72
2022/03/02 05:49:14;;;;;;;5.87;5.27;;;;;;;1.09;77.65;101166.97;5051983;28;20223;-72
2022/03/02 05:51:41;;;;;;;8.23;5.90;;;;;;;1.09;77.67;101164.28;5051792;28;20183;-72
2022/03/02 05:54:10;;;;;;;6.53;5.93;;;;;;;1.08;78.04;101157.28;5051592;28;20180;-72
2022/03/02 05:56:39;;;;;;;7.20;6.07;;;;;;;0.87;77.81;101165.88;5051579;28;20171;-72
2022/03/02 05:59:06;;;;;;;9.20;6.07;;;;;;;1.02;77.92;101168.97;5051368;28;20320;-72
2022/03/02 06:01:32;;;;;;;8.03;5.40;;;;;;;1.11;77.23;101172.94;5051358;28;20175;-72
2022/03/02 06:03:58;;;;;;;6.87;4.87;;;;;;;0.96;76.73;101163.66;5052395;28;20229;-73
2022/03/02 06:06:23;;;;;;;5.43;4.93;;;;;;;0.68;76.45;101161.59;5048677;28;20190;-73
2022/03/02 06:08:50;;;;;;;6.43;5.60;;;;;;;0.53;76.18;101148.56;5051287;28;20194;-72
2022/03/02 06:11:16;;;;;;;5.20;4.70;;;;;;;0.76;76.62;101155.91;5051555;28;20186;-73
2022/03/02 06:13:41;;;;;;;6.33;5.73;;;;;;;0.79;76.94;101163.50;5051435;28;20179;-73
2022/03/02 06:16:07;;;;;;;6.03;5.00;;;;;;;0.91;76.11;101177.81;5051243;28;20724;-73
2022/03/02 06:18:33;;;;;;;7.10;6.33;;;;;;;1.05;75.33;101173.88;5051290;28;20574;-73
2022/03/02 06:21:00;;;;;;;5.60;5.07;;;;;;;1.09;74.67;101169.66;5051333;28;20187;-73
2022/03/02 06:23:32;;;;;;;7.40;5.87;;;;;;;1.04;73.77;101174.13;5051319;28;20182;-72
2022/03/02 06:25:58;;;;;;;6.00;5.40;;;;;;;1.00;73.28;101162.16;5051220;28;20470;-72
2022/03/02 06:28:24;;;;;;;4.60;4.17;;;;;;;0.88;73.51;101165.66;5050993;28;20218;-70
2022/03/02 06:30:49;;;;;;;8.10;5.63;;;;;;;0.85;73.02;101167.97;5051151;28;20646;-71
2022/03/02 06:33:18;;;;;;;6.40;5.80;;;;;;;0.87;73.15;101161.31;5051250;28;20258;-71
2022/03/02 06:35:44;;;;;;;8.83;5.80;;;;;;;0.88;73.37;101170.22;5050206;28;20562;-72
2022/03/02 06:38:10;;;;;;;6.13;5.43;;;;;;;0.86;73.56;101169.59;5050831;28;20182;-71
2022/03/02 06:40:35;;;;;;;7.40;5.77;;;;;;;0.99;74.67;101182.03;5050883;28;20183;-70
2022/03/02 06:43:14;;;;;;;6.07;5.30;;;;;;;1.22;74.99;101187.47;5050921;28;20171;-71
2022/03/02 06:45:57;;;;;;;6.57;5.13;;;;;;;1.29;74.38;101179.28;5033002;28;20290;-70
2022/03/02 06:48:30;;;;;;;6.50;5.37;;;;;;;0.71;75.14;101166.50;5049836;28;20198;-71
2022/03/02 06:51:00;;;;;;;7.87;5.30;;;;;;;0.65;76.28;101167.44;5047958;28;20249;-71
2022/03/02 06:53:35;;;;;;;6.53;5.63;;;;;;;0.72;77.98;101171.66;5032877;28;20320;-71
2022/03/02 06:56:02;;;;;;;10.20;6.43;;;;;;;0.89;78.57;101174.53;5050616;28;20221;-72
2022/03/02 06:58:34;;;;;;;8.37;5.37;;;;;;;1.04;78.59;101172.25;5050825;28;20221;-72
2022/03/02 07:01:01;;;;;;;7.03;6.23;;;;;;;1.09;78.99;101171.53;5050796;28;20171;-72
2022/03/02 07:03:28;;;;;;;7.00;5.10;;;;;;;1.16;78.51;101181.16;5050708;28;20170;-71
2022/03/02 07:05:54;;;;;;;7.03;6.33;;;;;;;1.11;78.13;101172.94;5050666;28;20579;-70
2022/03/02 07:08:21;;;;;;;7.33;5.60;;;;;;;1.18;77.70;101173.69;5050433;28;20201;-71
2022/03/02 07:10:51;;;;;;;6.73;5.73;;;;;;;1.14;75.87;101171.66;5050711;28;20171;-72
2022/03/02 07:13:16;;;;;;;5.47;4.90;;;;;;;1.14;77.08;101172.47;5050566;28;20542;-70
2022/03/02 07:15:42;;;;;;;7.73;6.10;;;;;;;1.13;77.69;101170.84;5050416;28;20206;-72
2022/03/02 07:18:07;;;;;;;10.57;6.57;;;;;;;1.21;77.63;101171.56;5050429;28;20171;-72
2022/03/02 07:20:38;;;;;;;10.23;7.23;;;;;;;1.19;77.36;101177.19;5050452;28;20178;-72
2022/03/02 07:23:06;;;;;;;9.83;8.10;;;;;;;1.04;76.08;101176.81;5050444;28;20171;-72
2022/03/02 07:25:40;;;;;;;8.87;7.30;;;;;;;1.05;76.48;101173.88;5050474;28;20169;-72
2022/03/02 07:28:10;;;;;;;9.47;8.20;;;;;;;1.03;77.74;101178.69;5032400;28;20187;-72
2022/03/02 07:30:36;;;;;;;8.83;7.23;;;;;;;0.95;77.77;101187.06;5050745;28;20167;-71
2022/03/02 07:33:03;;;;;;;8.63;7.47;;;;;;;0.97;77.99;101178.75;5050345;28;20182;-72
2022/03/02 07:35:31;;;;;;;8.60;6.63;;;;;;;0.93;77.38;101180.28;5047804;28;20916;-73
2022/03/02 07:37:57;;;;;;;7.70;6.87;;;;;;;1.10;77.45;101181.25;5030916;28;20183;-73
2022/03/02 07:40:23;;;;;;;8.20;6.87;;;;;;;1.31;76.88;101187.97;5049966;28;20174;-73
2022/03/02 07:42:49;;;;;;;13.40;8.17;;;;;;;1.53;77.38;101185.53;5049729;28;20587;-74
2022/03/02 07:45:16;;;;;;;8.50;7.60;;;;;;;1.73;76.87;101189.50;5049818;28;20179;-72
2022/03/02 07:47:42;;;;;;;8.17;7.10;;;;;;;1.83;76.26;101194.31;5054000;28;20175;-71
2022/03/02 07:50:08;;;;;;;9.27;8.37;;;;;;;1.98;76.12;101196.53;5038169;28;20176;-71
2022/03/02 07:52:37;;;;;;;10.67;7.53;;;;;;;2.09;76.13;101206.50;5056507;28;20179;-72
2022/03/02 07:55:09;;;;;;;8.70;6.40;;;;;;;2.17;76.08;101202.59;5054352;28;20533;-71
2022/03/02 07:57:38;;;;;;;7.67;6.60;;;;;;;2.15;74.79;101194.75;5054819;28;20171;-72
2022/03/02 08:00:05;;;;;;;13.03;6.70;;;;;;;2.17;74.14;101197.19;5054311;28;20171;-71
2022/03/02 08:02:31;;;;;;;7.50;6.70;;;;;;;2.07;74.28;101187.88;5054144;28;20260;-72
2022/03/02 08:04:57;;;;;;;7.57;6.87;;;;;;;2.07;74.61;101192.44;5054280;28;20179;-72
2022/03/02 08:07:23;;;;;;;8.83;7.07;;;;;;;1.96;74.50;101182.47;5053976;28;20179;-73
2022/03/02 08:09:51;;;;;;;8.00;6.60;;;;;;;2.09;74.58;101182.22;5054188;28;20224;-72
2022/03/02 08:12:20;;;;;;;7.23;6.53;;;;;;;2.30;74.92;101186.97;5053656;28;20210;-72
2022/03/02 08:14:46;;;;;;;7.60;6.47;;;;;;;2.38;75.61;101193.88;5054068;28;20195;-72
2022/03/02 08:17:12;;;;;;;8.13;7.30;;;;;;;2.38;75.63;101177.72;5053886;28;20179;-72
2022/03/02 08:19:37;;;;;;;7.87;7.03;;;;;;;2.41;75.71;101185.31;5053779;28;20225;-75
2022/03/02 08:22:12;;;;;;;8.13;6.67;;;;;;;2.50;76.06;101178.50;5054103;28;20175;-76
2022/03/02 08:24:42;;;;;;;6.97;6.27;;;;;;;2.61;75.78;101182.22;5036000;28;20171;-75
2022/03/02 08:27:12;;;;;;;7.50;6.80;;;;;;;2.66;75.27;101172.34;5054302;28;20170;-75
2022/03/02 08:29:39;;;;;;;7.30;6.30;;;;;;;2.68;74.97;101166.69;5054004;28;20229;-76
2022/03/02 08:32:08;;;;;;;9.10;7.03;;;;;;;2.54;75.13;101170.75;5053874;28;20749;-76
2022/03/02 08:34:34;;;;;;;8.90;7.37;;;;;;;2.29;76.10;101155.69;5052009;28;20215;-75
2022/03/02 08:37:01;;;;;;;8.63;7.20;;;;;;;2.32;76.45;101149.84;5051669;28;20194;-75
2022/03/02 08:39:27;;;;;;;10.27;8.10;;;;;;;2.40;76.69;101154.03;5035547;28;20245;-73
2022/03/02 08:41:54;;;;;;;10.67;7.90;;;;;;;2.42;76.41;101148.38;5053389;28;20172;-76
2022/03/02 08:44:20;;;;;;;11.10;8.63;;;;;;;2.31;76.43;101152.75;5053393;28;20168;-75
2022/03/02 08:46:47;;;;;;;8.63;7.83;;;;;;;2.39;76.81;101152.38;5053323;28;20175;-76
2022/03/02 08:49:15;;;;;;;9.60;8.60;;;;;;;2.37;77.71;101152.63;5053254;28;20631;-76
2022/03/02 08:51:41;;;;;;;8.10;7.30;;;;;;;2.43;78.03;101153.53;5052767;28;20681;-74
2022/03/02 08:54:07;;;;;;;11.17;8.37;;;;;;;2.40;78.71;101148.63;5052894;28;20168;-76
2022/03/02 08:56:35;;;;;;;8.87;7.50;;;;;;;2.42;78.97;101140.28;5051998;28;20595;-74
2022/03/02 08:59:01;;;;;;;12.20;7.97;;;;;;;2.38;78.83;101138.09;5048663;28;20195;-76
2022/03/02 09:01:29;;;;;;;8.60;7.80;;;;;;;2.43;78.68;101136.53;5052381;28;20651;-76
2022/03/02 09:03:58;;;;;;;12.13;8.60;;;;;;;2.49;78.68;101141.00;5052427;28;20547;-76
2022/03/02 09:06:25;;;;;;;10.43;9.37;;;;;;;2.41;77.86;101138.66;5052392;28;20207;-76
2022/03/02 09:08:51;;;;;;;9.83;8.73;;;;;;;2.47;77.39;101133.16;5051937;28;20179;-76
2022/03/02 09:11:16;;;;;;;10.10;8.17;;;;;;;2.58;76.48;101142.22;5052351;28;20245;-74
2022/03/02 09:13:42;;;;;;;8.47;7.57;;;;;;;2.67;74.61;101147.00;5052142;28;20187;-76
2022/03/02 09:16:10;;;;;;;10.30;8.57;;;;;;;2.75;73.82;101150.34;5051946;28;20207;-76
2022/03/02 09:18:37;;;;;;;10.47;8.27;;;;;;;2.85;73.80;101147.84;5051846;28;20176;-76
2022/03/02 09:21:05;;;;;;;10.90;9.23;;;;;;;2.94;73.10;101144.53;5048592;28;20187;-76
2022/03/02 09:23:38;;;;;;;8.90;8.10;;;;;;;2.92;71.28;101146.66;5051903;28;20179;-75
2022/03/02 09:26:12;;;;;;;7.87;7.07;;;;;;;3.03;69.83;101153.00;5049319;28;20643;-76
2022/03/02 09:28:41;;;;;;;7.43;6.73;;;;;;;3.21;70.10;101149.28;5051763;28;20185;-71
2022/03/02 09:31:08;;;;;;;9.93;8.23;;;;;;;3.21;69.25;101152.00;5051982;28;20175;-72
2022/03/02 09:33:34;;;;;;;9.00;7.50;;;;;;;3.23;69.13;101158.78;5052367;28;20183;-72
2022/03/02 09:36:03;;;;;;;16.17;9.40;;;;;;;3.28;70.12;101152.63;5052117;28;20203;-72
2022/03/02 09:38:30;;;;;;;10.47;8.00;;;;;;;3.37;68.96;101164.66;5051710;28;20179;-72
2022/03/02 09:40:59;;;;;;;14.53;9.63;;;;;;;3.54;69.33;101162.78;5052033;28;20232;-72
2022/03/02 09:43:25;;;;;;;9.57;8.10;;;;;;;3.65;68.58;101157.53;5051648;28;20305;-72
2022/03/02 09:45:57;;;;;;;9.13;7.90;;;;;;;3.69;66.77;101155.97;5051800;28;20195;-72
2022/03/02 09:48:35;;;;;;;18.90;9.13;;;;;;;3.73;65.14;101157.91;5051537;28;20250;-72
2022/03/02 09:51:06;;;;;;;10.70;7.70;;;;;;;3.89;64.14;101157.06;5033896;28;20532;-72
2022/03/02 09:53:33;;;;;;;9.63;7.83;;;;;;;3.97;61.45;101163.94;5051753;28;20548;-71
2022/03/02 09:56:05;;;;;;;9.37;8.03;;;;;;;3.95;61.30;101163.38;5051389;28;20655;-72
2022/03/02 09:58:37;;;;;;;8.53;6.73;;;;;;;4.22;64.06;101163.47;5051976;28;20567;-72
2022/03/02 10:01:02;;;;;;;11.87;9.20;;;;;;;4.27;65.98;101151.88;5052382;28;20175;-71
2022/03/02 10:03:36;;;;;;;9.30;7.67;;;;;;;4.37;65.92;101162.81;5052115;28;20258;-72
2022/03/02 10:06:05;;;;;;;7.70;6.90;;;;;;;4.44;63.27;101152.63;5052111;28;20186;-72
2022/03/02 10:08:35;;;;;;;7.73;7.00;;;;;;;4.51;59.86;101153.25;5051730;28;20485;-71
2022/03/02 10:11:06;;;;;;;16.07;7.00;;;;;;;4.58;58.64;101151.16;5052325;28;20175;-73
2022/03/02 10:13:32;;;;;;;8.10;7.27;;;;;;;4.63;60.36;101159.34;5051543;28;20179;-72
2022/03/02 10:16:02;;;;;;;12.07;9.07;;;;;;;4.69;64.04;101154.78;5051585;28;20231;-73
2022/03/02 10:18:32;;;;;;;11.83;9.00;;;;;;;4.77;61.77;101162.44;5033762;28;20268;-72
2022/03/02 10:21:00;;;;;;;12.87;9.87;;;;;;;4.72;60.29;101144.25;5051900;28;20179;-71
2022/03/02 10:23:41;;;;;;;10.77;9.63;;;;;;;4.72;63.36;101138.84;5051584;28;20171;-72
2022/03/02 10:26:18;;;;;;;13.73;8.60;;;;;;;4.75;62.79;101129.41;5051707;28;20453;-71
2022/03/02 10:29:00;;;;;;;13.90;8.73;;;;;;;4.69;62.23;101125.84;5051287;28;20183;-72
2022/03/02 10:31:57;;;;;;;8.83;7.97;;;;;;;4.86;61.80;101125.72;5051278;28;20163;-71
2022/03/02 10:34:25;;;;;;;9.33;7.47;;;;;;;4.97;59.53;101119.34;5051001;28;20182;-71
2022/03/02 10:37:03;;;;;;;8.67;7.70;;;;;;;4.94;58.99;101119.84;5050947;28;20626;-71
2022/03/02 10:39:31;;;;;;;9.73;8.23;;;;;;;5.01;59.63;101128.56;5049405;28;20592;-71
2022/03/02 10:42:04;;;;;;;8.73;7.30;;;;;;;5.09;59.21;101127.28;5050743;28;20217;-71
2022/03/02 10:44:32;;;;;;;9.17;8.10;;;;;;;5.16;58.64;101130.59;5050560;28;20211;-71
2022/03/02 10:47:03;;;;;;;9.70;8.03;;;;;;;5.21;59.41;101122.53;5050636;28;20183;-71
2022/03/02 10:49:29;;;;;;;10.10;8.90;;;;;;;5.35;58.24;101131.84;5050996;28;20221;-71
2022/03/02 10:51:56;;;;;;;17.13;8.57;;;;;;;5.38;54.91;101130.50;5051151;28;20163;-71
2022/03/02 10:54:23;;;;;;;8.83;7.50;;;;;;;5.44;55.47;101123.22;5051193;28;20167;-71
2022/03/02 10:56:53;;;;;;;9.43;8.43;;;;;;;5.36;54.31;101122.63;5051131;28;20176;-72
2022/03/02 10:59:22;;;;;;;10.23;7.90;;;;;;;5.66;55.46;101126.63;5051062;28;20218;-72
2022/03/02 11:01:49;;;;;;;10.03;8.77;;;;;;;5.45;54.01;101119.44;5050870;28;20240;-71
2022/03/02 11:04:15;;;;;;;11.67;8.00;;;;;;;5.47;54.86;101117.28;5033309;28;20175;-72
2022/03/02 11:06:42;;;;;;;9.67;8.33;;;;;;;5.51;55.00;101116.50;5051013;28;20178;-71
2022/03/02 11:09:07;;;;;;;13.73;8.07;;;;;;;5.66;55.52;101111.19;5050730;28;20175;-71
2022/03/02 11:11:37;;;;;;;8.97;7.10;;;;;;;5.65;55.09;101108.75;5032666;28;20627;-71
2022/03/02 11:14:04;;;;;;;9.20;7.93;;;;;;;5.85;53.31;101110.72;5050501;28;20175;-71
2022/03/02 11:16:29;;;;;;;8.80;7.90;;;;;;;5.82;52.38;101103.94;5050428;28;20557;-71
2022/03/02 11:18:55;;;;;;;8.27;7.50;;;;;;;5.82;52.44;101097.72;5050919;28;20171;-72
2022/03/02 11:21:32;;;;;;;10.83;6.73;;;;;;;5.67;50.23;101087.59;5052453;28;20638;-71
2022/03/02 11:24:05;;;;;;;11.47;8.00;;;;;;;5.79;52.63;101096.34;5054102;28;20170;-71
2022/03/02 11:26:42;;;;;;;8.77;7.43;;;;;;;5.94;52.45;101091.03;5054512;28;20178;-71
2022/03/02 11:29:12;;;;;;;8.40;7.47;;;;;;;5.96;52.00;101090.75;5054207;28;20583;-72
2022/03/02 11:31:57;;;;;;;8.83;7.73;;;;;;;6.10;51.42;101081.06;5054469;28;20175;-71